Time;durP1;ratioP1;P1;durP2;ratioP2;P2;SDS_P1;SDS_P2;PMS_P1;PMS_P2;Temp;Humidity;BMP_temperature;BMP_pressure;BME280_temperature;BME280_humidity;BME280_pressure;Samples;Min_cycle;Max_cycle;Signal;HPM_P1;HPM_P2
2022/08/13 00:01:33;;;;;;;6.05;3.00;;;;;;;18.72;100.00;99646.69;5151830;27;20102;-55
2022/08/13 00:04:00;;;;;;;5.68;2.42;;;;;;;18.62;100.00;99683.63;5151464;27;20142;-55
2022/08/13 00:07:01;;;;;;;12.60;2.63;;;;;;;18.54;100.00;99693.22;5151583;27;20050;-52
2022/08/13 00:09:27;;;;;;;7.75;3.15;;;;;;;18.38;100.00;99731.78;5151407;27;20046;-54
2022/08/13 00:14:40;;;;;;;7.30;3.67;;;;;;;18.50;100.00;99725.75;5151414;27;20103;-55
2022/08/13 00:17:09;;;;;;;7.65;2.53;;;;;;;18.65;100.00;99702.25;5151221;27;20046;-55
2022/08/13 00:19:38;;;;;;;6.18;2.85;;;;;;;18.34;100.00;99713.13;5151358;27;20046;-54
2022/08/13 00:22:04;;;;;;;6.32;2.70;;;;;;;18.57;100.00;99728.50;5151379;27;20055;-57
2022/08/13 00:24:31;;;;;;;2.63;2.42;;;;;;;18.49;100.00;99713.88;5151547;27;20106;-55
2022/08/13 00:26:59;;;;;;;6.22;3.20;;;;;;;18.51;100.00;99699.56;5151309;27;20051;-56
2022/08/13 00:29:26;;;;;;;3.13;2.42;;;;;;;18.50;100.00;99712.66;5151304;27;20587;-54
2022/08/13 00:31:53;;;;;;;4.20;3.05;;;;;;;18.44;100.00;99728.16;5151221;27;20095;-55
2022/08/13 00:34:20;;;;;;;10.45;3.00;;;;;;;18.46;100.00;99713.88;5151030;27;20099;-56
2022/08/13 00:36:47;;;;;;;3.05;2.75;;;;;;;18.53;100.00;99661.88;5151180;27;20133;-56
2022/08/13 00:39:14;;;;;;;5.43;2.95;;;;;;;18.35;100.00;99683.41;5150959;27;20524;-55
2022/08/13 00:41:42;;;;;;;6.57;2.78;;;;;;;18.42;100.00;99738.88;5151122;27;20093;-55
2022/08/13 00:44:12;;;;;;;3.15;2.70;;;;;;;18.45;100.00;99710.31;5151050;27;20046;-56
2022/08/13 00:46:39;;;;;;;7.97;2.60;;;;;;;18.32;100.00;99684.19;5150965;27;20493;-55
2022/08/13 00:49:06;;;;;;;4.32;3.20;;;;;;;18.20;100.00;99759.59;5150931;27;20054;-53
2022/08/13 00:51:34;;;;;;;4.90;2.70;;;;;;;18.02;100.00;99812.34;5151139;27;20047;-55
2022/08/13 00:54:03;;;;;;;3.38;2.90;;;;;;;17.98;100.00;99837.34;5150803;27;20134;-56
2022/08/13 00:56:31;;;;;;;10.73;3.70;;;;;;;17.92;100.00;99843.69;5150961;27;20047;-56
2022/08/13 00:59:00;;;;;;;7.38;3.00;;;;;;;17.98;100.00;99855.97;5152144;27;20070;-55
2022/08/13 01:01:26;;;;;;;9.45;2.83;;;;;;;17.75;100.00;99871.00;5154456;27;20051;-55
2022/08/13 01:03:54;;;;;;;3.63;2.90;;;;;;;17.93;100.00;99846.06;5154477;27;20146;-55
2022/08/13 01:06:24;;;;;;;6.75;3.05;;;;;;;17.92;100.00;99874.19;5154283;27;20057;-54
2022/08/13 01:08:52;;;;;;;4.80;3.20;;;;;;;17.85;100.00;99875.00;5154508;27;20057;-55
2022/08/13 01:11:22;;;;;;;6.40;2.67;;;;;;;17.76;100.00;99893.97;5154443;27;20074;-55
2022/08/13 01:13:51;;;;;;;4.72;2.97;;;;;;;17.56;100.00;99921.28;5154132;27;20057;-54
2022/08/13 01:16:18;;;;;;;4.47;2.63;;;;;;;17.64;100.00;99929.22;5154207;27;20555;-55
2022/08/13 01:18:46;;;;;;;5.93;3.15;;;;;;;17.68;100.00;99926.47;5154420;27;20059;-56
2022/08/13 01:21:15;;;;;;;3.08;2.63;;;;;;;17.44;100.00;99924.44;5154143;27;20046;-55
2022/08/13 01:23:45;;;;;;;5.95;2.92;;;;;;;17.56;100.00;99952.59;5154045;27;20046;-53
2022/08/13 01:26:13;;;;;;;7.63;2.65;;;;;;;17.57;100.00;99918.13;5154068;27;20425;-54
2022/08/13 01:28:40;;;;;;;7.97;3.33;;;;;;;17.62;100.00;99930.81;5153935;27;20051;-52
2022/08/13 01:31:07;;;;;;;4.25;3.08;;;;;;;17.64;100.00;99898.72;5154141;27;20181;-54
2022/08/13 01:33:35;;;;;;;4.80;3.03;;;;;;;17.57;100.00;99918.13;5153993;27;20046;-55
2022/08/13 01:36:03;;;;;;;9.35;2.55;;;;;;;17.63;100.00;99890.81;5153882;27;20065;-55
2022/08/13 01:38:30;;;;;;;5.28;2.38;;;;;;;17.58;100.00;99902.28;5153973;27;20046;-56
2022/08/13 01:40:57;;;;;;;5.18;2.67;;;;;;;17.60;100.00;99880.50;5153709;27;20046;-55
2022/08/13 01:43:28;;;;;;;2.85;2.50;;;;;;;17.52;100.00;99881.69;5153889;27;20183;-53
2022/08/13 01:45:55;;;;;;;7.55;3.67;;;;;;;17.42;100.00;99874.94;5154195;27;20050;-55
2022/08/13 01:51:08;;;;;;;5.85;2.83;;;;;;;17.59;100.00;99859.50;5153731;27;20127;-53
2022/08/13 01:53:34;;;;;;;3.20;2.33;;;;;;;17.46;100.00;99861.91;5153704;27;20051;-55
2022/08/13 01:56:02;;;;;;;2.95;2.33;;;;;;;17.46;100.00;99859.13;5153533;27;20133;-56
2022/08/13 01:58:29;;;;;;;2.75;2.33;;;;;;;17.16;100.00;99853.94;5153366;27;20111;-55
2022/08/13 02:00:59;;;;;;;5.47;2.38;;;;;;;17.41;100.00;99876.91;5153509;27;20046;-56
2022/08/13 02:03:25;;;;;;;4.68;2.50;;;;;;;17.43;100.00;99887.63;5153842;27;20050;-56
2022/08/13 02:05:52;;;;;;;5.65;2.85;;;;;;;17.53;100.00;99863.88;5153715;27;20047;-52
2022/08/13 02:08:20;;;;;;;4.38;2.33;;;;;;;17.39;100.00;99845.22;5153441;27;20626;-56
2022/08/13 02:10:48;;;;;;;2.78;2.58;;;;;;;17.55;100.00;99865.03;5153161;27;20133;-53
2022/08/13 02:13:17;;;;;;;5.95;3.05;;;;;;;17.49;100.00;99888.78;5153460;27;20133;-55
2022/08/13 02:15:45;;;;;;;5.90;3.20;;;;;;;17.49;100.00;99852.75;5153257;27;20047;-52
2022/08/13 02:18:17;;;;;;;7.40;2.65;;;;;;;17.36;100.00;99862.66;5153204;27;20046;-52
2022/08/13 02:20:44;;;;;;;4.45;2.30;;;;;;;17.47;100.00;99874.56;5153521;27;20046;-56
2022/08/13 02:23:15;;;;;;;4.57;2.40;;;;;;;17.50;100.00;99837.72;5153146;27;20486;-55
2022/08/13 02:25:43;;;;;;;7.18;2.13;;;;;;;17.34;100.00;99863.06;5153274;27;20054;-52
2022/08/13 02:28:10;;;;;;;6.00;2.72;;;;;;;17.39;100.00;99859.09;5153112;27;20099;-54
2022/08/13 02:30:37;;;;;;;2.45;2.22;;;;;;;17.50;100.00;99832.19;5153152;27;20102;-56
2022/08/13 02:33:06;;;;;;;4.30;2.80;;;;;;;17.51;100.00;99836.53;5153062;27;20051;-56
2022/08/13 02:35:36;;;;;;;2.50;2.28;;;;;;;17.58;100.00;99811.59;5152777;27;20141;-56
2022/08/13 02:38:03;;;;;;;5.32;2.40;;;;;;;17.29;100.00;99819.09;5152777;27;20459;-54
2022/08/13 02:43:14;;;;;;;3.80;2.97;;;;;;;17.56;100.00;99847.25;5153173;27;20049;-55
2022/08/13 02:45:41;;;;;;;3.03;2.20;;;;;;;17.69;100.00;99839.31;5152782;27;20084;-56
2022/08/13 02:48:07;;;;;;;2.85;2.40;;;;;;;17.72;100.00;99829.41;5152920;27;20046;-52
2022/08/13 02:50:42;;;;;;;6.85;2.67;;;;;;;17.70;100.00;99792.97;5152707;27;20053;-52
2022/08/13 02:53:09;;;;;;;2.55;2.33;;;;;;;17.45;100.00;99856.72;5153023;27;20053;-56
2022/08/13 02:55:36;;;;;;;4.47;2.65;;;;;;;17.37;100.00;99891.97;5152601;27;20046;-56
2022/08/13 02:58:04;;;;;;;5.93;2.30;;;;;;;17.19;100.00;99925.16;5152618;27;20058;-55
2022/08/13 03:00:31;;;;;;;4.13;2.00;;;;;;;17.17;100.00;99952.47;5152691;27;20554;-55
2022/08/13 03:02:59;;;;;;;4.38;2.22;;;;;;;17.30;100.00;99919.66;5152301;27;20050;-56
2022/08/13 03:05:30;;;;;;;4.95;2.90;;;;;;;17.18;100.00;99967.91;5152432;27;20083;-52
2022/08/13 03:07:57;;;;;;;6.55;2.42;;;;;;;17.34;100.00;99931.56;5152380;27;20046;-55
2022/08/13 03:10:27;;;;;;;3.17;2.08;;;;;;;17.27;100.00;99921.25;5152610;27;20057;-56
2022/08/13 03:12:58;;;;;;;2.35;2.15;;;;;;;17.17;100.00;99924.78;5152333;27;20497;-53
2022/08/13 03:15:26;;;;;;;5.32;2.28;;;;;;;17.08;100.00;99947.28;5152424;27;20058;-56
2022/08/13 03:17:52;;;;;;;5.32;2.20;;;;;;;17.29;100.00;99912.53;5152494;27;20185;-56
2022/08/13 03:20:20;;;;;;;5.93;2.30;;;;;;;17.16;100.00;99918.44;5152309;27;20107;-56
2022/08/13 03:22:48;;;;;;;5.93;2.58;;;;;;;17.55;100.00;99894.75;5151382;27;20062;-52
2022/08/13 03:25:15;;;;;;;2.92;2.30;;;;;;;17.44;100.00;99831.00;5152119;27;20106;-56
2022/08/13 03:27:41;;;;;;;8.38;2.28;;;;;;;17.85;100.00;99733.53;5152195;27;20046;-53
2022/08/13 03:30:09;;;;;;;4.05;2.60;;;;;;;18.38;100.00;99656.81;5151952;27;20506;-56
2022/08/13 03:32:40;;;;;;;3.97;2.67;;;;;;;18.98;100.00;99402.78;5151959;27;20079;-53
2022/08/13 03:35:09;;;;;;;4.88;3.15;;;;;;;18.69;100.00;99377.31;5151976;27;20051;-56
2022/08/13 03:37:37;;;;;;;3.50;2.80;;;;;;;19.10;100.00;99188.28;5152316;27;20091;-55
2022/08/13 03:40:05;;;;;;;2.40;2.20;;;;;;;19.35;100.00;99156.50;5151987;27;20043;-57
2022/08/13 03:42:31;;;;;;;2.97;2.30;;;;;;;19.70;100.00;99069.66;5152020;27;20134;-56
2022/08/13 03:44:57;;;;;;;3.60;1.98;;;;;;;19.76;100.00;99017.09;5151824;27;20051;-55
2022/08/13 03:47:24;;;;;;;4.20;2.22;;;;;;;20.34;100.00;98869.03;5151774;27;20046;-56
2022/08/13 03:49:50;;;;;;;7.72;2.35;;;;;;;20.27;100.00;98719.69;5151891;27;20529;-55
2022/08/13 03:52:16;;;;;;;4.95;2.13;;;;;;;20.25;100.00;98774.22;5151984;27;20173;-56
2022/08/13 03:54:43;;;;;;;3.17;2.28;;;;;;;21.02;100.00;98706.31;5151901;27;20161;-53
2022/08/13 03:57:10;;;;;;;3.17;2.25;;;;;;;21.10;100.00;98676.22;5151842;27;20047;-55
2022/08/13 03:59:36;;;;;;;2.13;2.03;;;;;;;21.09;100.00;98655.13;5151930;27;20051;-55
2022/08/13 04:02:03;;;;;;;8.00;2.10;;;;;;;21.27;100.00;98618.31;5152086;27;20129;-55
2022/08/13 04:04:29;;;;;;;3.00;1.75;;;;;;;21.60;100.00;98613.19;5151345;27;20086;-55
2022/08/13 04:06:57;;;;;;;2.72;2.00;;;;;;;22.11;100.00;98593.38;5151657;27;20623;-56
2022/08/13 04:09:23;;;;;;;3.38;2.08;;;;;;;21.57;100.00;98595.34;5151799;27;20079;-56
2022/08/13 04:11:50;;;;;;;9.45;2.90;;;;;;;21.84;100.00;98602.38;5151577;27;20047;-56
2022/08/13 04:14:17;;;;;;;2.75;2.05;;;;;;;22.20;100.00;98615.78;5151499;27;20133;-56
2022/08/13 04:16:43;;;;;;;1.92;1.83;;;;;;;21.92;100.00;98611.25;5151395;27;20141;-55
2022/08/13 04:19:09;;;;;;;2.15;1.88;;;;;;;21.98;100.00;98603.84;5151220;27;20090;-56
2022/08/13 04:21:37;;;;;;;1.98;1.83;;;;;;;22.69;100.00;98606.72;5151347;27;20043;-52
2022/08/13 04:24:04;;;;;;;3.25;2.10;;;;;;;22.61;100.00;98633.34;5151286;27;20551;-53
2022/08/13 04:26:31;;;;;;;7.30;2.10;;;;;;;23.26;100.00;98656.72;5151144;27;20082;-57
2022/08/13 04:28:59;;;;;;;6.57;2.05;;;;;;;23.22;100.00;98654.06;5151178;27;20530;-54
2022/08/13 04:31:26;;;;;;;2.92;2.03;;;;;;;23.24;100.00;98664.78;5151257;27;20183;-53
2022/08/13 04:33:53;;;;;;;3.47;1.88;;;;;;;23.06;100.00;98670.31;5153684;27;20055;-56
2022/08/13 04:36:19;;;;;;;2.13;1.95;;;;;;;23.49;100.00;98714.88;5155110;27;20138;-56
2022/08/13 04:38:45;;;;;;;3.30;1.88;;;;;;;23.39;100.00;98746.88;5154826;27;20050;-56
2022/08/13 04:41:11;;;;;;;2.17;1.98;;;;;;;23.39;100.00;98709.72;5154618;27;20076;-55
2022/08/13 04:43:38;;;;;;;2.17;2.08;;;;;;;23.94;100.00;98732.97;5154723;27;20064;-54
2022/08/13 04:46:05;;;;;;;4.03;1.83;;;;;;;24.53;100.00;98772.03;5155073;27;20095;-56
2022/08/13 04:48:32;;;;;;;2.95;1.70;;;;;;;24.07;100.00;98762.84;5154801;27;20567;-56
2022/08/13 04:50:59;;;;;;;5.65;2.03;;;;;;;24.35;100.00;98794.41;5154469;27;20099;-56
2022/08/13 04:53:26;;;;;;;5.10;1.80;;;;;;;24.87;100.00;98793.28;5154537;27;20047;-56
2022/08/13 04:55:54;;;;;;;2.97;2.22;;;;;;;25.10;100.00;98827.50;5154479;27;20501;-55
2022/08/13 04:58:21;;;;;;;7.20;2.05;;;;;;;24.62;100.00;98818.88;5154566;27;20046;-55
2022/08/13 05:00:48;;;;;;;3.10;1.80;;;;;;;25.07;100.00;98868.47;5154544;27;20050;-55
2022/08/13 05:03:18;;;;;;;2.83;2.35;;;;;;;24.97;100.00;98821.31;5154789;27;20061;-57
2022/08/13 05:05:46;;;;;;;2.85;2.10;;;;;;;25.50;100.00;98865.72;5154392;27;20055;-56
2022/08/13 05:08:15;;;;;;;2.15;1.80;;;;;;;25.47;100.00;98852.63;5154792;27;20051;-56
2022/08/13 05:10:42;;;;;;;3.95;2.03;;;;;;;25.28;100.00;98860.34;5154515;27;20505;-55
2022/08/13 05:13:24;;;;;;;2.83;1.80;;;;;;;25.48;100.00;98882.25;5154515;27;20046;-56
2022/08/13 05:15:52;;;;;;;2.63;2.00;;;;;;;26.41;100.00;98908.63;5151463;27;20398;-56
2022/08/13 05:18:19;;;;;;;13.55;2.33;;;;;;;26.08;100.00;98911.47;5154375;27;20521;-54
2022/08/13 05:20:45;;;;;;;4.78;2.00;;;;;;;26.01;100.00;98878.91;5154284;27;20047;-55
2022/08/13 05:23:13;;;;;;;2.15;1.80;;;;;;;25.64;100.00;98898.72;5154197;27;20054;-54
2022/08/13 05:25:40;;;;;;;1.85;1.60;;;;;;;25.94;100.00;98876.47;5154101;27;20081;-57
2022/08/13 05:28:08;;;;;;;4.88;1.60;;;;;;;27.01;100.00;98920.81;5154141;27;20042;-56
2022/08/13 05:30:37;;;;;;;2.38;1.77;;;;;;;26.79;100.00;98927.56;5154244;27;20078;-58
2022/08/13 05:33:13;;;;;;;3.25;1.77;;;;;;;26.88;100.00;98923.88;5154068;27;20498;-55
2022/08/13 05:35:41;;;;;;;2.35;1.50;;;;;;;26.99;100.00;98944.56;5153829;27;20150;-56
2022/08/13 05:38:07;;;;;;;4.10;1.83;;;;;;;26.32;100.00;98928.34;5153827;27;20528;-54
2022/08/13 05:40:35;;;;;;;3.33;2.05;;;;;;;27.23;100.00;98979.56;5153974;27;20573;-56
2022/08/13 05:43:02;;;;;;;2.55;1.60;;;;;;;26.63;100.00;98936.44;5153964;27;20047;-57
2022/08/13 05:45:29;;;;;;;1.77;1.67;;;;;;;26.95;100.00;98937.56;5153089;27;20046;-55
2022/08/13 05:47:55;;;;;;;2.83;1.60;;;;;;;27.55;100.00;98958.13;5153912;27;20098;-57
2022/08/13 05:50:22;;;;;;;4.05;1.80;;;;;;;28.03;100.00;99000.94;5153699;27;20053;-57
2022/08/13 05:52:49;;;;;;;1.92;1.80;;;;;;;27.28;100.00;98970.44;5153619;27;20513;-57
2022/08/13 05:55:15;;;;;;;4.03;1.70;;;;;;;27.64;100.00;98986.19;5153482;27;20094;-56
2022/08/13 05:57:42;;;;;;;2.60;1.70;;;;;;;27.56;100.00;98971.72;5153973;27;20051;-56
2022/08/13 06:05:38;;;;;;;3.60;1.80;;;;;;;28.98;100.00;99009.16;5153875;27;20425;-58
2022/08/13 06:08:06;;;;;;;3.28;1.67;;;;;;;27.63;100.00;98996.66;5153590;27;20050;-57
2022/08/13 06:10:33;;;;;;;4.47;2.00;;;;;;;28.67;100.00;99007.75;5153819;27;20053;-57
2022/08/13 06:13:01;;;;;;;4.50;1.85;;;;;;;29.01;100.00;98992.03;5153383;27;20506;-58
2022/08/13 06:15:27;;;;;;;4.20;2.05;;;;;;;28.00;100.00;99009.59;5153602;27;20141;-57
2022/08/13 06:17:54;;;;;;;5.47;1.77;;;;;;;28.12;100.00;98985.94;5153461;27;20050;-57
2022/08/13 06:20:20;;;;;;;4.05;2.13;;;;;;;28.54;100.00;98977.06;5154015;27;20070;-58
2022/08/13 06:22:48;;;;;;;4.75;1.60;;;;;;;28.22;100.00;98989.41;5153445;27;20560;-58
2022/08/13 06:25:15;;;;;;;6.72;2.55;;;;;;;28.77;100.00;98966.84;5153593;27;20058;-58
2022/08/13 06:27:42;;;;;;;5.68;2.00;;;;;;;28.30;100.00;99001.84;5153427;27;20046;-58
2022/08/13 06:30:09;;;;;;;2.72;1.80;;;;;;;27.98;100.00;98967.78;5153207;27;20055;-56
2022/08/13 06:32:37;;;;;;;3.25;2.30;;;;;;;27.91;100.00;98907.00;5153184;27;20047;-58
2022/08/13 06:35:05;;;;;;;3.42;2.00;;;;;;;29.00;100.00;98973.56;5152819;27;20054;-58
2022/08/13 06:37:32;;;;;;;2.63;2.20;;;;;;;29.00;100.00;98965.09;5153024;27;20138;-57
2022/08/13 06:40:00;;;;;;;2.30;2.00;;;;;;;28.89;100.00;98996.00;5152989;27;20049;-58
2022/08/13 06:42:28;;;;;;;4.90;2.28;;;;;;;28.48;100.00;98964.94;5152936;27;20053;-59
2022/08/13 06:44:54;;;;;;;4.43;2.20;;;;;;;28.70;100.00;98950.38;5152765;27;20063;-58
2022/08/13 06:47:23;;;;;;;4.72;1.95;;;;;;;28.77;100.00;98947.09;5153078;27;20046;-59
2022/08/13 06:49:50;;;;;;;4.07;2.40;;;;;;;29.37;100.00;98958.03;5152805;27;20050;-58
2022/08/13 06:52:16;;;;;;;3.38;2.28;;;;;;;29.25;100.00;98968.44;5152862;27;20502;-59
2022/08/13 06:54:43;;;;;;;2.47;2.20;;;;;;;28.54;100.00;98897.34;5152831;27;20483;-59
2022/08/13 06:57:11;;;;;;;3.58;2.20;;;;;;;28.08;100.00;98875.47;5151722;27;20054;-59
2022/08/13 06:59:39;;;;;;;2.90;1.98;;;;;;;29.12;100.00;98903.13;5152847;27;20046;-58
2022/08/13 07:02:08;;;;;;;4.28;2.20;;;;;;;28.85;100.00;98950.25;5152807;27;20053;-56
2022/08/13 07:04:35;;;;;;;3.78;2.00;;;;;;;28.77;100.00;98887.88;5152902;27;20157;-58
2022/08/13 07:07:03;;;;;;;5.75;2.45;;;;;;;29.33;100.00;98958.25;5152563;27;20042;-58
2022/08/13 07:09:32;;;;;;;4.22;2.20;;;;;;;29.10;100.00;98905.69;5152488;27;20050;-59
2022/08/13 07:11:59;;;;;;;3.42;1.80;;;;;;;29.43;100.00;98913.69;5152625;27;20111;-58
2022/08/13 07:14:25;;;;;;;4.25;2.28;;;;;;;28.39;100.00;98894.63;5152441;27;20545;-58
2022/08/13 07:16:58;;;;;;;3.47;2.45;;;;;;;29.43;100.00;98897.50;5152486;27;20094;-58
2022/08/13 07:19:25;;;;;;;7.90;2.17;;;;;;;30.17;100.00;98938.38;5152287;27;20498;-59
2022/08/13 07:21:51;;;;;;;4.85;2.75;;;;;;;29.18;100.00;98923.72;5152711;27;20129;-59
2022/08/13 07:24:18;;;;;;;6.65;2.30;;;;;;;30.25;100.00;98970.56;5152302;27;20060;-60
2022/08/13 07:26:45;;;;;;;3.47;2.28;;;;;;;29.66;100.00;98901.31;5152303;27;20127;-59
2022/08/13 07:29:12;;;;;;;5.47;1.90;;;;;;;30.06;100.00;98941.91;5152278;27;20046;-60
2022/08/13 07:31:40;;;;;;;4.38;2.20;;;;;;;30.40;100.00;98931.59;5152034;27;20433;-60
2022/08/13 07:34:08;;;;;;;2.60;2.33;;;;;;;30.36;100.00;98942.38;5152060;27;20043;-58
2022/08/13 07:36:38;;;;;;;5.18;2.60;;;;;;;30.41;100.00;98950.09;5152235;27;20129;-60
2022/08/13 07:39:08;;;;;;;4.97;2.50;;;;;;;31.32;100.00;99002.97;5152190;27;20060;-59
2022/08/13 07:41:42;;;;;;;4.20;2.40;;;;;;;31.14;100.00;98977.91;5151684;27;20057;-60
2022/08/13 07:44:12;;;;;;;5.90;2.60;;;;;;;30.74;100.00;98962.84;5151813;27;20567;-60
2022/08/13 07:46:42;;;;;;;6.55;2.63;;;;;;;31.60;100.00;98973.91;5151766;27;20509;-60
2022/08/13 07:49:10;;;;;;;6.63;2.78;;;;;;;31.37;100.00;98971.03;5151596;27;20050;-60
2022/08/13 07:51:37;;;;;;;5.20;2.58;;;;;;;31.59;100.00;98973.13;5151704;27;20181;-58
2022/08/13 07:54:06;;;;;;;7.72;2.10;;;;;;;31.82;100.00;98996.59;5151912;27;20417;-60
2022/08/13 07:56:33;;;;;;;3.03;2.72;;;;;;;31.17;100.00;98985.41;5151676;27;20137;-60
2022/08/13 07:59:00;;;;;;;3.67;2.22;;;;;;;30.45;100.00;98935.72;5151899;27;20082;-58
2022/08/13 08:01:27;;;;;;;3.42;2.60;;;;;;;30.25;100.00;98906.31;5151607;27;20042;-60
2022/08/13 08:03:57;;;;;;;8.88;2.55;;;;;;;30.81;100.00;98928.41;5151867;27;20498;-58
2022/08/13 08:06:25;;;;;;;6.47;2.60;;;;;;;30.28;100.00;98910.19;5151529;27;20050;-58
2022/08/13 08:08:53;;;;;;;4.90;2.88;;;;;;;30.66;100.00;98930.66;5151311;27;20429;-59
2022/08/13 08:14:02;;;;;;;6.97;2.80;;;;;;;31.03;100.00;98950.34;5150345;27;20082;-60
2022/08/13 08:16:30;;;;;;;5.72;2.50;;;;;;;30.85;100.00;98948.75;5151427;27;20043;-58
2022/08/13 08:18:58;;;;;;;6.53;2.78;;;;;;;31.53;100.00;98941.19;5151345;27;20047;-59
2022/08/13 08:21:25;;;;;;;3.80;2.42;;;;;;;30.47;100.00;98916.19;5151712;27;20092;-59
2022/08/13 08:23:56;;;;;;;7.93;2.90;;;;;;;30.23;100.00;98905.28;5151490;27;20057;-58
2022/08/13 08:26:26;;;;;;;7.30;3.28;;;;;;;30.69;100.00;98924.75;5151580;27;20046;-59
2022/08/13 08:28:52;;;;;;;3.00;2.50;;;;;;;30.23;100.00;98902.47;5151155;27;20054;-59
2022/08/13 08:31:19;;;;;;;5.55;2.53;;;;;;;31.45;100.00;98950.69;5151446;27;20046;-59
2022/08/13 08:33:46;;;;;;;4.68;2.40;;;;;;;30.79;100.00;98925.34;5151188;27;20431;-58
2022/08/13 08:36:13;;;;;;;6.50;2.40;;;;;;;31.07;100.00;98931.06;5150973;27;20050;-60
2022/08/13 08:44:20;;;;;;;6.07;2.35;;;;;;;30.09;100.00;98914.66;5151134;27;20110;-59
2022/08/13 08:46:47;;;;;;;5.90;2.40;;;;;;;30.46;100.00;98904.09;5150809;27;20048;-57
2022/08/13 08:49:15;;;;;;;4.97;2.30;;;;;;;30.34;100.00;98860.09;5150976;27;20047;-60
2022/08/13 08:51:43;;;;;;;2.63;2.25;;;;;;;30.37;100.00;98904.31;5150944;27;20053;-58
2022/08/13 08:54:12;;;;;;;5.43;2.50;;;;;;;29.82;100.00;98860.31;5150957;27;20424;-58
2022/08/13 08:56:41;;;;;;;5.70;2.50;;;;;;;30.99;100.00;98929.22;5151027;27;20133;-58
2022/08/13 08:59:09;;;;;;;5.47;2.40;;;;;;;30.72;100.00;98914.47;5150766;27;20054;-60
2022/08/13 09:01:36;;;;;;;3.78;2.50;;;;;;;30.83;100.00;98930.75;5151076;27;20050;-59
2022/08/13 09:04:05;;;;;;;7.03;2.53;;;;;;;31.59;100.00;98918.50;5150776;27;20066;-59
2022/08/13 09:06:32;;;;;;;5.97;2.50;;;;;;;31.13;100.00;98931.84;5150833;27;20082;-59
2022/08/13 09:08:59;;;;;;;3.80;2.15;;;;;;;31.57;100.00;98952.25;5150631;27;20080;-58
2022/08/13 09:11:28;;;;;;;3.85;2.40;;;;;;;30.71;100.00;98956.13;5150696;27;20055;-60
2022/08/13 09:13:55;;;;;;;8.25;2.13;;;;;;;31.28;100.00;98914.59;5150581;27;20050;-60
2022/08/13 09:16:23;;;;;;;4.07;2.40;;;;;;;30.86;100.00;98918.41;5150669;27;20682;-59
2022/08/13 09:18:49;;;;;;;6.57;2.33;;;;;;;30.74;100.00;98926.06;5151138;27;20054;-59
2022/08/13 09:21:17;;;;;;;2.47;1.98;;;;;;;29.52;100.00;98931.22;5154027;27;20083;-57
2022/08/13 09:23:47;;;;;;;3.95;2.28;;;;;;;30.04;100.00;98898.47;5154600;27;20047;-59
2022/08/13 09:26:14;;;;;;;5.13;2.10;;;;;;;30.36;100.00;98871.66;5153992;27;20050;-58
2022/08/13 09:28:43;;;;;;;6.53;2.38;;;;;;;30.20;100.00;98903.47;5154366;27;20471;-58
2022/08/13 09:31:11;;;;;;;7.90;2.55;;;;;;;30.17;100.00;98898.78;5153886;27;20051;-59
2022/08/13 09:33:39;;;;;;;4.72;2.42;;;;;;;29.12;100.00;98849.50;5154155;27;20047;-57
2022/08/13 09:36:09;;;;;;;4.07;1.70;;;;;;;29.28;100.00;98824.22;5153835;27;20054;-59
2022/08/13 09:38:36;;;;;;;8.13;2.25;;;;;;;29.54;100.00;98800.78;5153833;27;20533;-56
2022/08/13 09:41:10;;;;;;;4.38;2.17;;;;;;;29.25;100.00;98847.81;5153671;27;20061;-56
2022/08/13 09:43:40;;;;;;;8.45;2.30;;;;;;;28.04;100.00;98793.19;5153979;27;20057;-56
2022/08/13 09:46:08;;;;;;;6.63;1.90;;;;;;;28.41;100.00;98765.19;5154082;27;20079;-56
2022/08/13 09:48:34;;;;;;;9.88;2.40;;;;;;;27.81;100.00;98761.91;5154202;27;20166;-56
2022/08/13 09:51:02;;;;;;;4.72;2.30;;;;;;;27.71;100.00;98723.88;5154244;27;20046;-55
2022/08/13 09:53:29;;;;;;;5.80;2.42;;;;;;;27.77;100.00;98721.16;5153687;27;20047;-55
2022/08/13 09:55:56;;;;;;;3.92;2.40;;;;;;;28.38;100.00;98729.50;5154022;27;20058;-59
2022/08/13 09:58:23;;;;;;;12.82;2.42;;;;;;;29.07;100.00;98789.69;5153764;27;20584;-57
2022/08/13 10:00:50;;;;;;;3.60;2.28;;;;;;;29.41;100.00;98826.63;5153892;27;20057;-56
2022/08/13 10:03:18;;;;;;;5.35;2.30;;;;;;;28.87;100.00;98831.28;5153711;27;20047;-57
2022/08/13 10:05:46;;;;;;;3.97;2.40;;;;;;;28.91;100.00;98803.63;5153688;27;20123;-56
2022/08/13 10:08:16;;;;;;;3.88;2.15;;;;;;;28.51;100.00;98825.78;5153493;27;20494;-57
2022/08/13 10:10:42;;;;;;;10.85;2.42;;;;;;;28.02;100.00;98799.31;5153365;27;20422;-56
2022/08/13 10:13:09;;;;;;;4.72;2.38;;;;;;;28.18;100.00;98761.34;5153593;27;20457;-57
2022/08/13 10:15:35;;;;;;;5.53;2.17;;;;;;;28.41;100.00;98742.66;5153271;27;20063;-57
2022/08/13 10:18:02;;;;;;;7.45;2.45;;;;;;;28.26;100.00;98739.91;5153600;27;20139;-56
2022/08/13 10:20:33;;;;;;;5.40;2.13;;;;;;;28.67;100.00;98742.63;5153147;27;20450;-56
2022/08/13 10:23:01;;;;;;;2.53;2.17;;;;;;;28.51;100.00;98760.16;5153424;27;20081;-57
2022/08/13 10:25:29;;;;;;;5.07;2.10;;;;;;;28.57;100.00;98758.19;5153016;27;20134;-57
2022/08/13 10:27:56;;;;;;;4.00;2.15;;;;;;;28.50;100.00;98770.69;5153299;27;20061;-57
2022/08/13 10:30:24;;;;;;;5.13;2.35;;;;;;;28.25;100.00;98793.94;5152667;27;20042;-57
2022/08/13 10:32:50;;;;;;;3.47;1.90;;;;;;;27.71;100.00;98757.66;5153042;27;20095;-56
2022/08/13 10:35:19;;;;;;;2.38;2.17;;;;;;;28.05;100.00;98707.38;5152850;27;20058;-55
2022/08/13 10:37:49;;;;;;;4.45;2.20;;;;;;;27.73;100.00;98676.28;5152921;27;20061;-57
2022/08/13 10:40:15;;;;;;;6.97;2.40;;;;;;;27.68;100.00;98641.16;5153138;27;20498;-56
2022/08/13 10:42:44;;;;;;;4.25;2.00;;;;;;;27.50;100.00;98633.00;5152849;27;20046;-56
2022/08/13 10:45:12;;;;;;;7.28;2.50;;;;;;;27.82;100.00;98628.25;5153108;27;20047;-56
2022/08/13 10:47:45;;;;;;;6.13;2.38;;;;;;;27.86;100.00;98636.53;5152661;27;20094;-53
2022/08/13 10:50:11;;;;;;;3.35;2.33;;;;;;;27.72;100.00;98676.78;5153243;27;20058;-55
2022/08/13 10:52:37;;;;;;;3.63;2.50;;;;;;;27.44;100.00;98655.47;5152789;27;20749;-56
2022/08/13 10:55:08;;;;;;;5.03;2.42;;;;;;;27.65;100.00;98650.56;5152899;27;20053;-57
2022/08/13 10:57:36;;;;;;;4.72;2.40;;;;;;;26.84;100.00;98603.47;5152771;27;20160;-57
2022/08/13 11:00:04;;;;;;;6.63;2.70;;;;;;;27.24;100.00;98596.34;5152434;27;20187;-57
2022/08/13 11:02:30;;;;;;;5.20;2.33;;;;;;;27.80;100.00;98621.59;5152573;27;20053;-53
2022/08/13 11:04:57;;;;;;;3.88;2.33;;;;;;;27.40;100.00;98587.34;5152510;27;20101;-57
2022/08/13 11:07:25;;;;;;;3.20;2.45;;;;;;;27.41;100.00;98588.13;5152694;27;20498;-54
2022/08/13 11:09:51;;;;;;;6.07;2.60;;;;;;;27.26;100.00;98576.16;5152346;27;20051;-55
2022/08/13 11:12:19;;;;;;;3.88;2.22;;;;;;;27.21;100.00;98569.22;5152696;27;20047;-56
2022/08/13 11:14:46;;;;;;;7.28;2.42;;;;;;;27.31;100.00;98558.56;5152200;27;20056;-55
2022/08/13 11:17:17;;;;;;;5.10;2.20;;;;;;;27.58;100.00;98582.66;5152641;27;20127;-56
2022/08/13 11:19:45;;;;;;;6.60;2.40;;;;;;;26.79;100.00;98539.50;5152163;27;20047;-53
2022/08/13 11:22:11;;;;;;;6.72;2.53;;;;;;;27.06;100.00;98546.75;5152319;27;20046;-56
2022/08/13 11:24:38;;;;;;;4.15;2.33;;;;;;;27.26;100.00;98550.81;5152236;27;20142;-55
2022/08/13 11:27:04;;;;;;;4.25;2.50;;;;;;;27.07;100.00;98595.34;5151994;27;20055;-57
2022/08/13 11:29:31;;;;;;;3.97;2.10;;;;;;;26.96;100.00;98590.34;5151999;27;20173;-56
2022/08/13 11:31:58;;;;;;;4.68;2.63;;;;;;;27.29;100.00;98600.50;5152024;27;20061;-55
2022/08/13 11:34:25;;;;;;;3.15;2.15;;;;;;;27.27;100.00;98575.69;5152244;27;20493;-54
2022/08/13 11:36:52;;;;;;;4.75;2.30;;;;;;;26.84;100.00;98585.81;5152211;27;20096;-57
2022/08/13 11:39:18;;;;;;;4.25;2.60;;;;;;;26.64;100.00;98542.34;5152399;27;20042;-55
2022/08/13 11:41:44;;;;;;;3.88;2.53;;;;;;;27.00;100.00;98579.66;5151655;27;20103;-53
2022/08/13 11:44:10;;;;;;;3.60;2.60;;;;;;;26.94;100.00;98565.50;5151710;27;20079;-55
2022/08/13 11:46:38;;;;;;;3.67;2.55;;;;;;;26.79;100.00;98578.06;5151837;27;20073;-56
2022/08/13 11:49:04;;;;;;;3.78;2.17;;;;;;;26.74;100.00;98579.56;5151987;27;20175;-56